createdAt,value
2022-08-14T00:01:46.251Z,21.90
2022-08-14T00:04:34.623Z,21.90
2022-08-14T00:07:09.311Z,21.90
2022-08-14T00:09:56.259Z,21.90
2022-08-14T00:12:33.095Z,21.80
2022-08-14T00:15:02.793Z,21.70
2022-08-14T00:17:29.880Z,21.70
2022-08-14T00:19:58.357Z,21.70
2022-08-14T00:22:56.303Z,21.70
2022-08-14T00:25:13.746Z,21.70
2022-08-14T00:27:42.735Z,21.60
2022-08-14T00:30:11.129Z,21.60
2022-08-14T00:32:53.478Z,21.60
2022-08-14T00:35:35.731Z,21.60
2022-08-14T00:38:10.787Z,21.60
2022-08-14T00:40:38.007Z,21.60
2022-08-14T00:43:06.462Z,21.60
2022-08-14T00:45:33.992Z,21.60
2022-08-14T00:48:01.144Z,21.60
2022-08-14T00:50:31.225Z,21.60
2022-08-14T00:53:00.362Z,21.50
2022-08-14T00:55:28.587Z,21.50
2022-08-14T00:58:17.452Z,21.40
2022-08-14T01:00:51.148Z,21.30
2022-08-14T01:03:21.637Z,21.20
2022-08-14T01:05:51.918Z,21.20
2022-08-14T01:08:51.272Z,21.20
2022-08-14T01:13:43.036Z,21.00
2022-08-14T01:16:14.826Z,21.10
2022-08-14T01:21:31.764Z,21.00
2022-08-14T01:24:02.514Z,20.90
2022-08-14T01:26:39.240Z,20.90
2022-08-14T01:29:06.771Z,20.90
2022-08-14T01:31:52.423Z,20.80
2022-08-14T01:35:18.769Z,20.70
2022-08-14T01:37:07.880Z,20.70
2022-08-14T01:39:38.117Z,20.70
2022-08-14T01:42:05.437Z,20.70
2022-08-14T01:44:38.192Z,20.70
2022-08-14T01:47:21.676Z,20.60
2022-08-14T01:49:59.805Z,20.60
2022-08-14T01:52:34.278Z,20.60
2022-08-14T01:55:18.828Z,20.70
2022-08-14T01:58:00.818Z,20.70
2022-08-14T02:00:36.284Z,20.70
2022-08-14T02:03:06.887Z,20.70
2022-08-14T02:05:35.638Z,20.60
2022-08-14T02:08:08.750Z,20.60
2022-08-14T02:10:46.617Z,20.60
2022-08-14T02:13:15.962Z,20.50
2022-08-14T02:15:43.997Z,20.40
2022-08-14T02:18:11.897Z,20.40
2022-08-14T02:20:42.650Z,20.40
2022-08-14T02:23:09.770Z,20.40
2022-08-14T02:25:39.511Z,20.40
2022-08-14T02:28:24.968Z,20.30
2022-08-14T02:30:54.674Z,20.30
2022-08-14T02:33:22.742Z,20.30
2022-08-14T02:35:53.319Z,20.30
2022-08-14T02:38:35.148Z,20.40
2022-08-14T02:41:02.460Z,20.40
2022-08-14T02:43:46.270Z,20.40
2022-08-14T02:46:20.466Z,20.40
2022-08-14T02:49:04.567Z,20.30
2022-08-14T02:51:36.664Z,20.30
2022-08-14T02:54:05.264Z,20.20
2022-08-14T02:57:16.476Z,20.20
2022-08-14T02:59:21.195Z,20.10
2022-08-14T03:01:51.144Z,20.10
2022-08-14T03:04:22.450Z,20.10
2022-08-14T03:07:06.014Z,20.10
2022-08-14T03:10:24.336Z,20.20
2022-08-14T03:12:30.939Z,20.20
2022-08-14T03:14:59.249Z,20.20
2022-08-14T03:17:27.033Z,20.20
2022-08-14T03:19:59.165Z,20.10
2022-08-14T03:22:27.911Z,20.10
2022-08-14T03:24:57.016Z,20.20
2022-08-14T03:27:26.604Z,20.20
2022-08-14T03:30:05.424Z,20.10
2022-08-14T08:07:55.333Z,31.30
2022-08-14T08:11:02.052Z,31.60
2022-08-14T08:13:24.020Z,32.00
2022-08-14T08:15:57.356Z,32.20
2022-08-14T08:18:27.666Z,32.60
2022-08-14T08:20:59.604Z,33.20
2022-08-14T08:23:31.049Z,33.00
2022-08-14T08:31:05.377Z,35.80
2022-08-14T08:33:37.065Z,35.90
2022-08-14T08:39:16.598Z,35.60
2022-08-14T08:41:19.930Z,34.30
2022-08-14T08:43:47.261Z,33.40
2022-08-14T08:46:23.478Z,32.70
2022-08-14T08:51:33.239Z,32.50
2022-08-14T08:54:05.729Z,32.30
2022-08-14T08:56:43.784Z,32.10
2022-08-14T08:59:20.389Z,31.90
2022-08-14T09:01:56.312Z,31.90
2022-08-14T09:04:26.304Z,32.30
2022-08-14T09:07:00.501Z,32.50
2022-08-14T09:09:59.282Z,32.10
2022-08-14T09:12:32.204Z,31.60
2022-08-14T09:15:11.567Z,31.40
2022-08-14T09:17:41.315Z,32.40
2022-08-14T09:20:11.546Z,34.10
2022-08-14T09:22:48.352Z,34.50
2022-08-14T09:25:16.236Z,34.00
2022-08-14T09:27:43.661Z,33.50
2022-08-14T09:30:31.504Z,34.30
2022-08-14T09:33:11.548Z,34.70
2022-08-14T09:35:42.772Z,35.20
2022-08-14T09:38:32.223Z,35.90
2022-08-14T09:41:03.988Z,36.50
2022-08-14T09:43:33.716Z,36.30
2022-08-14T09:46:02.665Z,35.30
2022-08-14T09:48:30.963Z,35.40
2022-08-14T09:54:18.711Z,37.60
2022-08-14T09:56:31.886Z,37.60
2022-08-14T09:59:15.031Z,37.80
2022-08-14T10:01:43.748Z,38.00
2022-08-14T10:04:33.798Z,38.10
2022-08-14T10:07:08.189Z,38.00
2022-08-14T10:12:04.801Z,39.20
2022-08-14T10:14:35.881Z,38.90
2022-08-14T10:17:06.448Z,39.10
2022-08-14T10:19:35.518Z,38.60
2022-08-14T10:23:12.677Z,38.20
2022-08-14T10:24:59.779Z,38.20
2022-08-14T10:27:28.114Z,38.00
2022-08-14T10:29:58.347Z,37.60
2022-08-14T10:32:28.601Z,37.40
2022-08-14T10:35:13.789Z,37.20
2022-08-14T10:37:46.680Z,37.80
2022-08-14T10:40:38.064Z,38.50
2022-08-14T10:43:02.832Z,38.80
2022-08-14T10:45:35.833Z,38.50
2022-08-14T10:48:34.422Z,38.60
2022-08-14T10:51:04.852Z,39.10
2022-08-14T10:53:39.878Z,39.50
2022-08-14T10:56:21.609Z,39.00
2022-08-14T10:59:08.736Z,39.20
2022-08-14T11:01:41.907Z,39.60
2022-08-14T11:04:27.691Z,40.20
2022-08-14T11:06:55.386Z,40.00
2022-08-14T11:09:23.375Z,39.70
2022-08-14T11:12:39.876Z,40.10
2022-08-14T11:14:50.792Z,40.20
2022-08-14T11:17:32.183Z,40.40
2022-08-14T11:20:01.282Z,40.50
2022-08-14T11:22:52.284Z,40.40
2022-08-14T11:25:21.335Z,40.60
2022-08-14T11:27:49.055Z,40.80
2022-08-14T11:30:51.188Z,41.10
2022-08-14T11:33:06.317Z,41.10
2022-08-14T11:35:44.038Z,40.30
2022-08-14T11:38:16.433Z,39.30
2022-08-14T11:40:46.703Z,39.40
2022-08-14T11:43:14.995Z,39.60
2022-08-14T11:45:45.297Z,39.30
2022-08-14T11:49:02.642Z,39.10
2022-08-14T11:51:12.222Z,38.40
2022-08-14T11:53:42.365Z,38.10
2022-08-14T11:56:10.959Z,38.00
2022-08-14T11:58:38.370Z,37.90
2022-08-14T12:01:09.576Z,38.40
2022-08-14T12:03:46.313Z,38.60
2022-08-14T12:06:29.534Z,38.40
2022-08-14T12:09:08.514Z,38.10
2022-08-14T12:11:43.100Z,38.10
2022-08-14T12:14:13.297Z,38.20
2022-08-14T12:17:04.777Z,37.70
2022-08-14T12:19:34.972Z,37.60
2022-08-14T12:22:02.737Z,37.70
2022-08-14T12:24:36.902Z,38.30
2022-08-14T12:27:08.752Z,38.90
2022-08-14T12:29:36.552Z,39.00
2022-08-14T12:32:08.932Z,38.80
2022-08-14T12:34:44.963Z,38.80
2022-08-14T12:37:12.286Z,38.40
2022-08-14T12:39:40.440Z,38.00
2022-08-14T12:42:08.028Z,37.80
2022-08-14T12:44:36.083Z,37.90
2022-08-14T12:47:13.271Z,38.00
2022-08-14T12:49:54.328Z,37.40
2022-08-14T12:52:41.541Z,36.40
2022-08-14T12:55:21.631Z,35.50
2022-08-14T12:57:53.236Z,34.80
2022-08-14T13:00:23.920Z,34.20
2022-08-14T13:02:55.855Z,33.60
2022-08-14T13:05:27.526Z,33.10
2022-08-14T13:07:55.432Z,33.00
2022-08-14T13:10:47.700Z,33.10
2022-08-14T13:13:15.562Z,33.00
2022-08-14T13:15:45.449Z,32.60
2022-08-14T13:18:14.003Z,32.50
2022-08-14T13:20:51.507Z,32.30
2022-08-14T13:23:31.713Z,32.30
2022-08-14T13:26:00.229Z,32.00
2022-08-14T13:28:33.361Z,31.60
2022-08-14T13:31:08.958Z,31.40
2022-08-14T13:33:40.919Z,31.40
2022-08-14T13:36:09.153Z,31.50
2022-08-14T13:38:36.944Z,31.50
2022-08-14T13:41:10.740Z,31.30
2022-08-14T13:43:59.306Z,31.30
2022-08-14T13:46:27.945Z,31.10
2022-08-14T13:48:56.472Z,30.90
2022-08-14T13:51:32.150Z,30.90
2022-08-14T13:54:11.062Z,30.90
2022-08-14T13:56:41.943Z,30.80
2022-08-14T13:59:09.785Z,30.60
2022-08-14T14:01:43.663Z,30.40
2022-08-14T14:04:19.883Z,30.40
2022-08-14T14:06:48.983Z,30.40
2022-08-14T14:09:20.920Z,30.50
2022-08-14T14:11:48.023Z,30.60
2022-08-14T14:14:44.702Z,30.50
2022-08-14T14:17:09.362Z,30.50
2022-08-14T14:19:38.196Z,30.50
2022-08-14T14:22:09.795Z,30.40
2022-08-14T14:24:40.235Z,30.50
2022-08-14T14:27:39.478Z,30.50
2022-08-14T14:29:58.698Z,30.40
2022-08-14T14:32:32.038Z,30.40
2022-08-14T14:35:01.787Z,30.40
2022-08-14T14:37:28.816Z,30.50
2022-08-14T14:40:52.349Z,30.40
2022-08-14T14:42:51.731Z,30.40
2022-08-14T14:45:21.331Z,30.50
2022-08-14T14:47:51.733Z,30.50
2022-08-14T14:50:26.568Z,30.50
2022-08-14T14:53:12.343Z,30.40
2022-08-14T14:56:48.200Z,30.20
2022-08-14T14:58:30.625Z,30.00
2022-08-14T15:00:59.977Z,29.90
2022-08-14T15:03:27.037Z,29.90
2022-08-14T15:05:54.576Z,29.90
2022-08-14T15:08:26.794Z,29.80
2022-08-14T15:11:13.677Z,29.70
2022-08-14T15:13:43.366Z,29.70
2022-08-14T15:16:20.630Z,29.70
2022-08-14T15:18:49.250Z,29.70
2022-08-14T15:21:16.314Z,29.70
2022-08-14T15:23:44.157Z,29.60
2022-08-14T15:26:24.283Z,29.60
2022-08-14T15:29:04.986Z,29.60
2022-08-14T15:31:36.038Z,29.60
2022-08-14T15:34:41.027Z,29.50
2022-08-14T15:37:00.592Z,29.40
2022-08-14T15:39:29.517Z,29.40
2022-08-14T15:42:02.104Z,29.40
2022-08-14T15:44:34.174Z,29.30
2022-08-14T15:47:07.073Z,29.30
2022-08-14T15:49:35.198Z,29.20
2022-08-14T15:52:04.305Z,29.20
2022-08-14T15:54:32.639Z,29.20
2022-08-14T15:57:00.775Z,29.20
2022-08-14T15:59:48.120Z,29.20
2022-08-14T16:02:16.878Z,29.20
2022-08-14T16:04:46.112Z,29.10
2022-08-14T16:07:17.742Z,29.10
2022-08-14T16:09:57.407Z,29.10
2022-08-14T16:12:46.227Z,29.10
2022-08-14T16:15:16.912Z,29.00
2022-08-14T16:17:44.920Z,28.90
2022-08-14T16:20:12.047Z,28.80
2022-08-14T16:22:57.171Z,28.80
2022-08-14T16:25:34.355Z,28.80
2022-08-14T16:28:02.371Z,28.80
2022-08-14T16:30:31.465Z,28.80
2022-08-14T16:32:59.791Z,28.80
2022-08-14T16:35:41.937Z,28.80
2022-08-14T16:38:29.425Z,28.80
2022-08-14T16:41:22.039Z,28.70
2022-08-14T16:43:53.178Z,28.70
2022-08-14T16:46:22.240Z,28.70
2022-08-14T16:48:57.229Z,28.70
2022-08-14T16:51:28.144Z,28.70
2022-08-14T16:53:56.203Z,28.70
2022-08-14T16:56:25.488Z,28.70
2022-08-14T16:59:09.502Z,28.70
2022-08-14T17:01:44.692Z,28.60
2022-08-14T17:04:14.926Z,28.60
2022-08-14T17:06:53.753Z,28.60
2022-08-14T17:09:23.775Z,28.60
2022-08-14T17:11:57.070Z,28.50
2022-08-14T17:14:25.367Z,28.50
2022-08-14T17:16:55.940Z,28.50
2022-08-14T17:19:23.371Z,28.50
2022-08-14T17:21:51.046Z,28.50
2022-08-14T17:24:56.933Z,28.40
2022-08-14T17:27:07.938Z,28.40
2022-08-14T17:29:55.941Z,28.30
2022-08-14T17:32:30.019Z,28.30
2022-08-14T17:35:16.794Z,28.20
2022-08-14T17:37:46.368Z,28.20
2022-08-14T17:40:15.949Z,28.10
2022-08-14T17:42:51.502Z,28.10
2022-08-14T17:45:26.876Z,28.10
2022-08-14T17:47:57.187Z,28.00
2022-08-14T17:51:00.477Z,28.00
2022-08-14T17:53:30.631Z,27.90
2022-08-14T17:56:03.304Z,27.80
2022-08-14T17:58:41.668Z,27.80
2022-08-14T18:01:12.792Z,27.80
2022-08-14T18:03:50.387Z,27.70
2022-08-14T18:06:40.261Z,27.70
2022-08-14T18:09:26.158Z,27.70
2022-08-14T18:11:54.714Z,27.60
2022-08-14T18:14:32.346Z,27.50
2022-08-14T18:17:01.268Z,27.50
2022-08-14T18:19:29.449Z,27.50
2022-08-14T18:21:58.918Z,27.40
2022-08-14T18:27:09.184Z,27.40
2022-08-14T18:29:42.465Z,27.40
2022-08-14T18:32:28.772Z,27.30
2022-08-14T18:35:10.987Z,27.20
2022-08-14T18:37:39.520Z,27.20
2022-08-14T18:42:36.076Z,27.20
2022-08-14T18:45:15.756Z,27.10
2022-08-14T18:50:46.368Z,27.00
2022-08-14T18:53:16.191Z,27.00
2022-08-14T18:56:09.842Z,26.90
2022-08-14T18:58:48.340Z,26.90
2022-08-14T19:01:23.343Z,26.90
2022-08-14T19:03:52.201Z,26.80
2022-08-14T19:06:19.472Z,26.80
2022-08-14T19:08:48.981Z,26.70
2022-08-14T19:11:32.204Z,26.70
2022-08-14T19:13:59.584Z,26.60
2022-08-14T19:16:34.449Z,26.60
2022-08-14T19:19:03.854Z,26.60
2022-08-14T19:21:42.591Z,26.60
2022-08-14T19:24:27.776Z,26.60
2022-08-14T19:27:37.596Z,26.50
2022-08-14T19:30:20.030Z,26.40
2022-08-14T19:32:50.639Z,26.30
2022-08-14T19:35:19.476Z,26.30
2022-08-14T19:37:52.740Z,26.30
2022-08-14T19:40:50.698Z,26.20
2022-08-14T19:43:55.132Z,26.20
2022-08-14T19:46:39.328Z,26.10
2022-08-14T19:48:59.963Z,26.10
2022-08-14T19:51:32.523Z,26.00
2022-08-14T19:54:13.603Z,26.00
2022-08-14T19:56:45.227Z,26.00
2022-08-14T19:59:17.554Z,26.00
2022-08-14T20:01:44.991Z,26.00
2022-08-14T20:04:45.918Z,25.90
2022-08-14T20:07:08.972Z,25.80
2022-08-14T20:11:07.095Z,25.80
2022-08-14T20:12:36.454Z,25.80
2022-08-14T20:15:17.902Z,25.80
2022-08-14T20:17:52.507Z,25.80
2022-08-14T20:20:31.742Z,25.80
2022-08-14T20:23:10.913Z,25.70
2022-08-14T20:25:55.765Z,25.70
2022-08-14T20:28:30.688Z,25.60
2022-08-14T20:31:17.866Z,25.60
2022-08-14T20:34:04.457Z,25.50
2022-08-14T20:36:37.524Z,25.40
2022-08-14T20:39:08.527Z,25.40
2022-08-14T20:41:35.654Z,25.40
2022-08-14T20:44:28.699Z,25.30
2022-08-14T20:47:01.223Z,25.30
2022-08-14T20:49:29.139Z,25.20
2022-08-14T20:52:00.082Z,25.10
2022-08-14T20:54:33.787Z,25.10
2022-08-14T20:57:15.689Z,25.10
2022-08-14T20:59:56.516Z,25.00
2022-08-14T21:02:49.834Z,25.00
2022-08-14T21:05:22.453Z,25.00
2022-08-14T21:08:09.675Z,25.00
2022-08-14T21:10:49.248Z,25.00
2022-08-14T21:13:27.559Z,24.90
2022-08-14T21:16:05.079Z,24.90
2022-08-14T21:18:55.529Z,24.80
2022-08-14T21:21:40.890Z,24.80
2022-08-14T21:24:10.181Z,24.80
2022-08-14T21:27:04.470Z,24.80
2022-08-14T21:29:40.023Z,24.80
2022-08-14T21:32:20.688Z,24.80
2022-08-14T21:34:55.370Z,24.80
2022-08-14T21:37:23.553Z,24.80
2022-08-14T21:39:57.093Z,24.80
2022-08-14T21:42:27.962Z,24.70
2022-08-14T21:44:55.281Z,24.70
2022-08-14T21:47:24.073Z,24.70
2022-08-14T21:49:51.048Z,24.60
2022-08-14T21:52:51.683Z,24.60
2022-08-14T21:55:12.402Z,24.60
2022-08-14T21:57:56.069Z,24.50
2022-08-14T22:00:39.515Z,24.50
2022-08-14T22:03:19.208Z,24.50
2022-08-14T22:05:53.204Z,24.50
2022-08-14T22:08:26.603Z,24.40
2022-08-14T22:10:54.369Z,24.40
2022-08-14T22:13:24.740Z,24.30
2022-08-14T22:18:25.580Z,24.30
2022-08-14T22:20:56.408Z,24.30
2022-08-14T22:23:24.918Z,24.30
2022-08-14T22:25:55.303Z,24.20
2022-08-14T22:28:25.296Z,24.20
2022-08-14T22:33:31.175Z,24.10
2022-08-14T22:36:00.604Z,24.10
2022-08-14T22:38:36.027Z,24.10
2022-08-14T22:41:26.776Z,24.10
2022-08-14T22:43:53.892Z,24.00
2022-08-14T22:46:21.571Z,24.00
2022-08-14T22:48:49.425Z,24.00
2022-08-14T22:51:17.996Z,23.90
2022-08-14T22:53:46.313Z,23.90
2022-08-14T22:56:20.389Z,23.90
2022-08-14T23:01:22.861Z,23.80
2022-08-14T23:03:50.092Z,23.70
2022-08-14T23:07:03.146Z,23.80
2022-08-14T23:11:52.343Z,23.70
2022-08-14T23:14:24.404Z,23.60
2022-08-14T23:16:57.442Z,23.70
2022-08-14T23:19:33.557Z,23.70
2022-08-14T23:22:01.873Z,23.60
2022-08-14T23:24:28.848Z,23.60
2022-08-14T23:26:58.041Z,23.60
2022-08-14T23:29:25.241Z,23.60
2022-08-14T23:31:53.027Z,23.60
2022-08-14T23:34:21.339Z,23.60
2022-08-14T23:36:54.397Z,23.70
2022-08-14T23:39:24.485Z,23.60
2022-08-14T23:41:53.754Z,23.60
2022-08-14T23:44:23.509Z,23.50
2022-08-14T23:46:57.169Z,23.50
2022-08-14T23:49:49.694Z,23.50
2022-08-14T23:53:06.792Z,23.50
2022-08-14T23:55:06.099Z,23.50
2022-08-14T23:57:43.952Z,23.50
